Anniston Metropolitan Airport Anniston US
ICAO: KANB
IATA: ANB
Category: Medium
Scheduled Services: No

Elevation: 612 ft
TransAlt. 18000 ft.

Airport Communications:
BIRMINGHAM APP/DEP:125.45
ASOS:119.675
CTAF:123.6
RDO:122.2
UNICOM:123

KANB Zoom In..

Runways:

(A) RW 05 length 7000 ft width 150 ft
ILS 111.50 / hdg 49

(B) RW 23 length 7000 ft width 150 ft
---- / hdg 229

Location; KANB
Day. 20 / Time. 01.53 Zulu
* Altimeter: 29.97
* Temperature: 24° c. 75.2°f.
* Wind from: 070° Speed 05 kn.
Dewpoint: 22° c.
Visibility: 10 Statute Miles.
Clouds: Clear (automated report).

KANB 200153Z AUTO 07005KT 10SM CLR 24/22 A2997 RMK AO2 SLP141 T02390217


Wind From 070°
Speed 05 kn.

 
 
jpsmedia.com for Web Design worldairports.se 2018   terms of use